Time;durP1;ratioP1;P1;durP2;ratioP2;P2;SDS_P1;SDS_P2;PMS_P1;PMS_P2;Temp;Humidity;BMP_temperature;BMP_pressure;BME280_temperature;BME280_humidity;BME280_pressure;Samples;Min_cycle;Max_cycle;Signal;HPM_P1;HPM_P2
2022/01/16 00:04:11;;;;;;;17.52;13.60;;;13.80;49.20;;;;;;5150658;27;1227736;-65
2022/01/16 00:06:26;;;;;;;15.88;13.32;;;13.80;49.20;;;;;;5152904;27;20046;-66
2022/01/16 00:08:52;;;;;;;16.40;14.05;;;13.80;49.20;;;;;;5153086;27;20038;-65
2022/01/16 00:11:17;;;;;;;16.98;13.75;;;13.70;49.20;;;;;;5152982;27;20041;-65
2022/01/16 00:13:43;;;;;;;15.02;12.68;;;13.70;49.20;;;;;;5152974;27;20077;-65
2022/01/16 00:16:13;;;;;;;14.18;12.68;;;13.70;49.20;;;;;;5132256;27;20039;-66
2022/01/16 00:18:49;;;;;;;16.33;13.57;;;13.70;49.20;;;;;;5150681;27;20035;-65
2022/01/16 00:21:19;;;;;;;15.68;13.23;;;13.70;49.20;;;;;;5150654;27;20089;-66
2022/01/16 00:23:48;;;;;;;17.48;13.65;;;13.70;49.20;;;;;;5131983;27;20050;-66
2022/01/16 00:26:14;;;;;;;17.15;13.95;;;13.70;49.20;;;;;;5132106;27;20504;-66
2022/01/16 00:28:41;;;;;;;15.18;12.50;;;13.70;49.10;;;;;;5150390;27;20027;-65
2022/01/16 00:31:06;;;;;;;17.15;13.27;;;13.70;49.10;;;;;;5132272;27;20070;-66
2022/01/16 00:33:32;;;;;;;15.77;13.10;;;13.70;49.10;;;;;;5132106;27;20078;-66
2022/01/16 00:35:58;;;;;;;16.67;13.52;;;13.70;49.10;;;;;;5150477;27;20541;-66
2022/01/16 00:38:23;;;;;;;17.90;14.02;;;13.70;49.10;;;;;;5131774;27;20087;-65
2022/01/16 00:40:49;;;;;;;16.40;13.85;;;13.70;49.10;;;;;;5150257;27;20088;-66
2022/01/16 00:43:18;;;;;;;16.42;13.48;;;13.70;49.00;;;;;;5131515;27;20394;-65
2022/01/16 00:45:46;;;;;;;17.65;14.25;;;13.70;49.10;;;;;;5114589;27;20122;-65
2022/01/16 00:48:12;;;;;;;14.80;12.82;;;13.60;49.10;;;;;;5150297;27;20386;-66
2022/01/16 00:50:38;;;;;;;16.30;13.50;;;13.60;49.10;;;;;;5150276;27;20034;-66
2022/01/16 00:53:04;;;;;;;15.98;14.27;;;13.60;49.10;;;;;;5131500;27;20051;-65
2022/01/16 00:55:29;;;;;;;13.77;12.27;;;13.60;49.10;;;;;;5131450;27;20039;-66
2022/01/16 00:57:55;;;;;;;15.43;13.57;;;13.60;49.00;;;;;;5131593;27;20118;-65
2022/01/16 01:00:21;;;;;;;14.23;11.95;;;13.60;49.00;;;;;;5131406;27;20042;-66
2022/01/16 01:02:46;;;;;;;15.38;13.18;;;13.60;49.00;;;;;;5131040;27;20055;-65
2022/01/16 01:05:15;;;;;;;14.10;12.45;;;13.60;49.10;;;;;;5131181;27;20039;-65
2022/01/16 01:07:41;;;;;;;16.35;13.88;;;13.60;49.10;;;;;;5131345;27;20485;-65
2022/01/16 01:10:08;;;;;;;15.90;13.70;;;13.50;49.00;;;;;;5149756;27;20037;-66
2022/01/16 01:12:52;;;;;;;14.60;13.10;;;13.50;49.00;;;;;;5149692;27;20043;-66
2022/01/16 01:15:20;;;;;;;15.00;13.40;;;13.50;49.00;;;;;;5130283;27;20037;-66
2022/01/16 01:17:47;;;;;;;16.98;13.07;;;13.50;49.00;;;;;;5138023;27;20462;-65
2022/01/16 01:20:17;;;;;;;15.65;13.05;;;13.50;49.00;;;;;;5137471;27;20442;-66
2022/01/16 01:22:48;;;;;;;16.98;13.43;;;13.50;49.00;;;;;;5156446;27;20038;-65
2022/01/16 01:25:17;;;;;;;14.70;12.63;;;13.50;49.00;;;;;;5137962;27;20043;-65
2022/01/16 01:27:44;;;;;;;15.57;12.88;;;13.50;49.00;;;;;;5137806;27;20038;-66
2022/01/16 01:30:14;;;;;;;16.00;13.07;;;13.50;49.00;;;;;;5156244;27;20050;-65
2022/01/16 01:32:45;;;;;;;15.27;12.70;;;13.50;49.00;;;;;;5156454;27;20457;-66
2022/01/16 01:35:13;;;;;;;15.93;13.73;;;13.50;49.00;;;;;;5120783;27;20099;-65
2022/01/16 01:37:40;;;;;;;17.23;13.52;;;13.50;49.30;;;;;;5156208;27;20039;-65
2022/01/16 01:40:10;;;;;;;17.63;14.00;;;13.50;49.00;;;;;;5155908;27;20039;-66
2022/01/16 01:42:44;;;;;;;16.73;14.30;;;13.50;49.00;;;;;;5155997;27;20051;-65
2022/01/16 01:51:14;;;;;;;18.73;14.75;;;13.40;48.90;;;;;;5155760;27;20043;-65
2022/01/16 01:53:29;;;;;;;15.77;13.57;;;13.40;48.90;;;;;;5137726;27;20046;-65
2022/01/16 01:55:55;;;;;;;16.95;14.07;;;13.40;49.00;;;;;;5137212;27;20501;-64
2022/01/16 01:58:20;;;;;;;18.35;14.80;;;13.40;49.00;;;;;;5155778;27;20034;-65
2022/01/16 02:00:46;;;;;;;18.30;14.05;;;13.40;49.00;;;;;;5137055;27;20042;-65
2022/01/16 02:05:51;;;;;;;16.83;13.80;;;13.40;49.00;;;;;;5130233;27;20353;-66
2022/01/16 02:08:16;;;;;;;17.05;13.60;;;13.40;49.00;;;;;;5130319;28;20375;-66
2022/01/16 02:10:42;;;;;;;17.45;13.50;;;13.40;49.10;;;;;;5130101;28;20048;-65
2022/01/16 02:13:25;;;;;;;16.45;13.40;;;13.40;49.10;;;;;;5129156;28;20497;-65
2022/01/16 02:27:59;;;;;;;17.58;13.98;;;13.30;49.00;;;;;;5129932;27;20062;-66
2022/01/16 02:32:47;;;;;;;16.38;13.73;;;13.20;49.10;;;;;;5129554;28;20035;-66
2022/01/16 02:35:13;;;;;;;16.33;14.07;;;13.30;49.10;;;;;;5128502;28;20043;-65
2022/01/16 02:37:39;;;;;;;17.73;12.98;;;13.30;49.10;;;;;;5128704;28;20031;-66
2022/01/16 02:40:15;;;;;;;16.55;14.02;;;13.30;49.10;;;;;;5128323;28;20039;-65
2022/01/16 02:42:47;;;;;;;17.27;14.38;;;13.30;49.10;;;;;;5128639;28;20043;-65
2022/01/16 02:45:27;;;;;;;17.92;13.43;;;13.30;49.10;;;;;;5129430;27;20221;-66
2022/01/16 02:47:53;;;;;;;15.73;12.52;;;13.30;49.10;;;;;;5129689;27;20050;-65
2022/01/16 02:50:19;;;;;;;18.15;14.25;;;13.30;49.10;;;;;;5128265;28;20039;-65
2022/01/16 02:52:44;;;;;;;15.60;12.98;;;13.30;49.10;;;;;;5128367;28;20032;-65
2022/01/16 02:55:15;;;;;;;17.98;14.63;;;13.30;49.10;;;;;;5129437;28;20412;-65
2022/01/16 02:57:41;;;;;;;18.13;13.52;;;13.30;49.20;;;;;;5129273;27;20149;-66
2022/01/16 03:00:10;;;;;;;16.83;14.45;;;13.20;49.10;;;;;;5128041;28;20040;-66
2022/01/16 03:02:36;;;;;;;18.55;14.63;;;13.20;49.20;;;;;;5129352;27;20039;-66
2022/01/16 03:05:03;;;;;;;19.13;14.85;;;13.20;49.10;;;;;;5127691;28;20057;-65
2022/01/16 03:07:31;;;;;;;18.05;13.85;;;13.30;49.20;;;;;;5129145;27;20032;-66
2022/01/16 03:12:48;;;;;;;17.88;13.68;;;13.20;49.20;;;;;;5130325;27;20422;-65
2022/01/16 03:15:15;;;;;;;18.83;15.55;;;13.20;49.20;;;;;;5128941;28;20043;-66
2022/01/16 03:21:53;;;;;;;18.65;14.25;;;13.20;49.10;;;;;;5128899;28;20039;-66
2022/01/16 03:23:18;;;;;;;18.65;13.52;;;13.20;49.10;;;;;;5128579;28;20117;-65
2022/01/16 03:25:47;;;;;;;16.52;12.82;;;13.20;49.20;;;;;;5130433;27;20380;-65
2022/01/16 03:28:13;;;;;;;19.55;15.57;;;13.20;49.20;;;;;;5129976;27;20049;-65
2022/01/16 03:30:38;;;;;;;18.25;13.95;;;13.20;49.20;;;;;;5129999;27;20379;-66
2022/01/16 03:33:05;;;;;;;19.30;14.25;;;13.20;49.20;;;;;;5129947;27;20130;-66
2022/01/16 03:35:30;;;;;;;16.40;12.80;;;13.20;49.30;;;;;;5128531;28;20039;-66
2022/01/16 03:37:56;;;;;;;17.92;13.98;;;13.20;49.20;;;;;;5128532;28;20118;-65
2022/01/16 03:40:22;;;;;;;16.88;13.55;;;13.20;49.20;;;;;;5129840;27;20038;-66
2022/01/16 03:42:49;;;;;;;18.27;13.98;;;13.20;49.30;;;;;;5128793;28;20047;-65
2022/01/16 03:45:18;;;;;;;18.58;14.27;;;13.10;49.20;;;;;;5129771;27;20433;-65
2022/01/16 03:47:43;;;;;;;19.17;15.15;;;13.20;49.30;;;;;;5128352;28;20044;-66
2022/01/16 03:50:12;;;;;;;19.05;13.50;;;13.20;49.30;;;;;;5128509;28;20168;-65
2022/01/16 03:52:41;;;;;;;18.50;13.27;;;13.10;49.30;;;;;;5128239;28;20535;-66
2022/01/16 03:55:07;;;;;;;21.67;14.73;;;13.20;49.30;;;;;;5128249;28;20114;-66
2022/01/16 03:57:33;;;;;;;17.38;13.02;;;13.20;49.30;;;;;;5128513;28;20104;-66
2022/01/16 03:59:59;;;;;;;17.05;13.40;;;13.10;49.30;;;;;;5128408;28;20166;-65
2022/01/16 04:02:25;;;;;;;17.48;13.30;;;13.10;49.30;;;;;;5129456;27;20122;-64
2022/01/16 04:04:50;;;;;;;18.13;13.77;;;13.10;49.30;;;;;;5127881;28;20122;-66
2022/01/16 04:07:24;;;;;;;19.35;14.32;;;13.10;49.30;;;;;;5128337;28;20039;-66
2022/01/16 04:09:49;;;;;;;18.35;13.70;;;13.10;49.30;;;;;;5129334;27;20093;-66
2022/01/16 04:12:20;;;;;;;17.27;13.25;;;13.10;49.30;;;;;;5127682;28;20529;-65
2022/01/16 04:17:26;;;;;;;14.73;12.52;;;13.20;49.40;;;;;;5130087;27;20353;-66
2022/01/16 04:19:53;;;;;;;19.45;14.05;;;13.10;49.40;;;;;;5129124;28;20104;-66
2022/01/16 04:22:20;;;;;;;17.38;13.52;;;13.10;49.40;;;;;;5129256;28;20440;-66
2022/01/16 04:24:45;;;;;;;18.27;12.73;;;13.20;49.50;;;;;;5130104;27;20031;-66
2022/01/16 04:27:12;;;;;;;18.77;14.00;;;13.10;49.40;;;;;;5146025;27;20559;-65
2022/01/16 04:29:40;;;;;;;18.70;13.50;;;13.10;49.40;;;;;;5128746;28;20118;-66
2022/01/16 04:32:06;;;;;;;17.05;12.88;;;13.10;49.40;;;;;;5128900;28;20122;-65
2022/01/16 04:34:32;;;;;;;17.27;12.38;;;13.10;49.40;;;;;;5128980;28;20122;-65
2022/01/16 04:36:57;;;;;;;20.67;14.13;;;13.10;49.40;;;;;;5128515;28;20077;-66
2022/01/16 04:39:31;;;;;;;18.05;13.50;;;13.10;49.40;;;;;;5129996;28;20043;-65
2022/01/16 04:44:43;;;;;;;17.08;13.23;;;13.10;49.50;;;;;;5129575;28;20119;-65
2022/01/16 04:47:09;;;;;;;18.95;14.30;;;13.10;49.50;;;;;;5129666;27;20429;-65
2022/01/16 04:49:34;;;;;;;17.65;13.32;;;13.10;49.60;;;;;;5129908;27;20472;-65
2022/01/16 04:52:00;;;;;;;17.63;13.77;;;13.10;49.50;;;;;;5128240;28;20039;-64
2022/01/16 04:54:29;;;;;;;16.05;13.25;;;13.10;49.50;;;;;;5129693;27;20073;-65
2022/01/16 04:56:54;;;;;;;18.17;13.55;;;13.10;49.60;;;;;;5128245;28;20043;-65
2022/01/16 04:59:20;;;;;;;17.48;13.52;;;13.10;49.60;;;;;;5129440;28;20031;-66
2022/01/16 05:01:46;;;;;;;17.50;13.45;;;13.10;49.60;;;;;;5128126;28;20367;-65
2022/01/16 05:04:12;;;;;;;18.60;13.77;;;13.00;49.50;;;;;;5145591;27;20085;-66
2022/01/16 05:06:37;;;;;;;17.38;14.00;;;13.10;49.60;;;;;;5129510;27;20506;-66
2022/01/16 05:09:03;;;;;;;17.52;13.05;;;13.10;49.60;;;;;;5128114;28;20043;-65
2022/01/16 05:11:29;;;;;;;19.63;14.70;;;13.10;49.60;;;;;;5128155;28;20254;-65
2022/01/16 05:19:19;;;;;;;15.38;12.32;;;13.00;49.50;;;;;;5150815;27;20111;-66
2022/01/16 05:21:45;;;;;;;17.63;13.80;;;13.00;49.50;;;;;;5129182;28;20047;-66
2022/01/16 05:24:14;;;;;;;19.08;13.70;;;13.00;49.50;;;;;;5128976;28;20050;-65
2022/01/16 05:26:42;;;;;;;17.45;13.65;;;13.00;49.60;;;;;;5130107;27;20444;-65
2022/01/16 05:29:09;;;;;;;18.02;13.77;;;13.00;49.60;;;;;;5129110;28;20086;-65
2022/01/16 05:31:35;;;;;;;17.92;13.98;;;13.00;49.60;;;;;;5128804;28;20437;-65
2022/01/16 05:34:02;;;;;;;18.25;14.00;;;13.00;50.30;;;;;;5130260;27;20047;-65
2022/01/16 05:36:28;;;;;;;17.13;12.82;;;13.00;49.70;;;;;;5129003;28;20043;-66
2022/01/16 05:38:53;;;;;;;17.05;12.90;;;13.00;49.60;;;;;;5129869;28;20444;-66
2022/01/16 05:41:20;;;;;;;16.42;12.68;;;13.00;49.70;;;;;;5128622;28;20096;-66
2022/01/16 05:43:49;;;;;;;16.00;11.82;;;13.00;49.70;;;;;;5129818;27;20043;-66
2022/01/16 05:46:15;;;;;;;17.13;12.85;;;13.00;49.70;;;;;;5128545;28;20495;-65
2022/01/16 05:48:41;;;;;;;16.95;13.23;;;13.00;49.70;;;;;;5129868;27;20063;-65
2022/01/16 05:51:08;;;;;;;18.13;13.07;;;13.00;49.70;;;;;;5129839;27;20031;-65
2022/01/16 05:53:34;;;;;;;19.02;13.50;;;13.00;49.70;;;;;;5129862;27;20398;-65
2022/01/16 05:56:00;;;;;;;16.88;12.85;;;13.00;49.70;;;;;;5129847;27;20048;-64
2022/01/16 05:58:26;;;;;;;17.33;13.93;;;13.00;49.70;;;;;;5128163;28;20050;-65
2022/01/16 06:00:51;;;;;;;17.48;13.85;;;13.00;49.70;;;;;;5128511;28;20038;-65
2022/01/16 06:03:19;;;;;;;16.65;12.73;;;13.00;49.70;;;;;;5129568;28;20532;-66
2022/01/16 06:05:44;;;;;;;16.52;13.05;;;13.00;49.70;;;;;;5129578;27;20395;-67
2022/01/16 06:08:12;;;;;;;18.05;12.68;;;13.00;49.70;;;;;;5129359;28;20043;-65
2022/01/16 06:10:38;;;;;;;17.90;12.70;;;13.00;49.80;;;;;;5128071;28;20506;-65
2022/01/16 06:13:06;;;;;;;18.77;13.43;;;13.00;49.80;;;;;;5129146;27;20491;-65
2022/01/16 06:15:32;;;;;;;17.98;13.85;;;13.00;49.70;;;;;;5144582;27;20035;-65
2022/01/16 06:18:00;;;;;;;18.45;12.73;;;13.00;49.80;;;;;;5148680;27;20570;-65
2022/01/16 06:20:26;;;;;;;17.98;14.27;;;13.00;49.80;;;;;;5150216;27;20038;-66
2022/01/16 06:22:53;;;;;;;19.25;14.35;;;13.00;49.80;;;;;;5148756;27;20039;-65
2022/01/16 06:25:19;;;;;;;18.23;13.02;;;13.00;49.80;;;;;;5149667;27;20038;-65
2022/01/16 06:27:45;;;;;;;18.63;13.68;;;13.00;49.90;;;;;;5148663;27;20470;-65
2022/01/16 06:30:12;;;;;;;19.08;14.00;;;13.00;49.90;;;;;;5136682;27;20049;-66
2022/01/16 06:32:38;;;;;;;19.65;15.02;;;13.00;49.90;;;;;;5134623;27;20497;-66
2022/01/16 06:35:06;;;;;;;16.52;12.80;;;13.00;50.00;;;;;;5134576;27;20051;-66
2022/01/16 06:37:31;;;;;;;18.40;13.15;;;13.00;50.00;;;;;;5134436;27;20047;-66
2022/01/16 06:39:57;;;;;;;19.40;13.02;;;13.00;50.00;;;;;;5134337;27;20039;-65
2022/01/16 06:42:23;;;;;;;17.67;13.23;;;13.00;50.00;;;;;;5135626;27;20034;-64
2022/01/16 06:44:48;;;;;;;18.90;13.18;;;13.00;50.00;;;;;;5134531;27;20382;-65
2022/01/16 06:47:14;;;;;;;19.50;13.32;;;13.00;50.00;;;;;;5134193;27;20402;-65
2022/01/16 06:49:40;;;;;;;17.42;12.52;;;13.00;50.00;;;;;;5134153;27;20043;-65
2022/01/16 06:52:08;;;;;;;20.35;12.68;;;13.00;50.00;;;;;;5134167;27;20038;-67
2022/01/16 06:54:34;;;;;;;17.95;13.45;;;13.00;50.00;;;;;;5134055;27;20047;-65
2022/01/16 06:57:00;;;;;;;16.92;12.80;;;13.00;50.00;;;;;;5135149;27;20058;-65
2022/01/16 06:59:26;;;;;;;16.00;12.38;;;13.00;50.00;;;;;;5133927;27;20126;-65
2022/01/16 07:01:54;;;;;;;19.15;13.13;;;12.90;50.00;;;;;;5134168;27;20039;-66
2022/01/16 07:04:23;;;;;;;19.45;13.27;;;13.00;50.10;;;;;;5134206;27;20046;-64
2022/01/16 07:06:48;;;;;;;17.30;12.93;;;13.00;50.10;;;;;;5135232;27;20027;-65
2022/01/16 07:09:14;;;;;;;18.15;12.82;;;13.00;50.10;;;;;;5133772;27;20039;-66
2022/01/16 07:11:40;;;;;;;17.40;12.60;;;12.90;50.00;;;;;;5134851;27;20043;-66
2022/01/16 07:14:06;;;;;;;17.65;13.10;;;13.00;50.10;;;;;;5131744;27;20148;-66
2022/01/16 07:16:31;;;;;;;18.63;13.27;;;12.90;50.10;;;;;;5114266;28;20075;-65
2022/01/16 07:18:57;;;;;;;17.60;12.77;;;12.90;50.10;;;;;;5096180;28;20052;-66
2022/01/16 07:21:22;;;;;;;18.88;13.43;;;13.10;50.20;;;;;;5075896;28;20042;-66
2022/01/16 07:23:49;;;;;;;18.10;13.20;;;12.90;50.10;;;;;;5075693;28;20046;-65
2022/01/16 07:26:17;;;;;;;19.55;13.20;;;12.90;50.10;;;;;;5093769;28;20110;-66
2022/01/16 07:28:42;;;;;;;18.55;12.75;;;13.00;50.20;;;;;;5075485;28;20048;-65
2022/01/16 07:31:08;;;;;;;15.43;11.48;;;13.00;50.20;;;;;;5075714;28;20073;-65
2022/01/16 07:33:34;;;;;;;17.30;12.90;;;12.90;50.20;;;;;;5075514;28;20075;-65
2022/01/16 07:36:02;;;;;;;16.25;12.70;;;13.00;50.20;;;;;;5093586;28;20065;-65
2022/01/16 07:38:28;;;;;;;16.17;12.02;;;13.00;50.30;;;;;;5093480;28;20464;-66
2022/01/16 07:40:54;;;;;;;15.18;11.90;;;13.00;50.20;;;;;;5092411;28;20032;-65
2022/01/16 07:43:19;;;;;;;19.55;13.23;;;13.00;50.20;;;;;;5075571;28;20476;-66
2022/01/16 07:45:45;;;;;;;17.95;12.48;;;13.00;50.20;;;;;;5075328;28;20083;-66
2022/01/16 07:48:11;;;;;;;17.58;12.38;;;13.00;50.30;;;;;;5075083;28;20101;-65
2022/01/16 07:50:37;;;;;;;18.67;12.57;;;12.90;50.20;;;;;;5075378;28;20048;-66
2022/01/16 07:53:04;;;;;;;18.33;12.98;;;13.00;50.30;;;;;;5074952;28;20048;-66
2022/01/16 07:55:29;;;;;;;19.55;13.13;;;13.00;50.30;;;;;;5075137;28;20388;-66
2022/01/16 07:57:56;;;;;;;15.65;12.70;;;13.00;50.30;;;;;;5092959;28;20051;-66
2022/01/16 08:00:23;;;;;;;19.02;12.90;;;13.00;50.30;;;;;;5093175;28;20122;-66
2022/01/16 08:02:50;;;;;;;14.18;11.50;;;13.00;50.30;;;;;;5075108;28;20048;-68
2022/01/16 08:05:17;;;;;;;15.98;12.57;;;13.00;50.40;;;;;;5093060;28;20036;-67
2022/01/16 08:07:43;;;;;;;17.92;13.40;;;13.00;50.30;;;;;;5075046;28;20162;-65
2022/01/16 08:10:10;;;;;;;14.68;12.13;;;13.00;50.30;;;;;;5093066;28;20047;-66
2022/01/16 08:12:36;;;;;;;16.98;12.93;;;13.00;50.40;;;;;;5074765;28;20048;-66
2022/01/16 08:15:03;;;;;;;15.00;12.55;;;13.00;50.40;;;;;;5085970;28;20064;-66
2022/01/16 08:17:29;;;;;;;19.23;12.75;;;13.00;50.40;;;;;;5112798;27;20083;-66
2022/01/16 08:19:54;;;;;;;16.30;11.50;;;13.00;50.40;;;;;;5094882;28;20125;-66
2022/01/16 08:22:23;;;;;;;18.77;12.52;;;13.00;50.40;;;;;;5094817;28;20048;-66
2022/01/16 08:24:48;;;;;;;16.25;12.07;;;13.00;50.40;;;;;;5113082;28;20078;-65
2022/01/16 08:27:15;;;;;;;14.52;10.93;;;13.00;50.40;;;;;;5094657;28;20430;-66
2022/01/16 08:29:41;;;;;;;16.05;12.32;;;13.00;50.40;;;;;;5094712;28;20052;-64
2022/01/16 08:32:07;;;;;;;15.75;12.45;;;13.00;50.40;;;;;;5094747;28;20122;-66
2022/01/16 08:34:33;;;;;;;15.23;11.82;;;13.00;50.40;;;;;;5112886;28;20067;-66
2022/01/16 08:36:59;;;;;;;18.00;12.07;;;13.00;50.40;;;;;;5094576;28;20415;-66
2022/01/16 08:39:24;;;;;;;15.82;11.13;;;13.00;50.40;;;;;;5094881;28;20031;-65
2022/01/16 08:41:50;;;;;;;16.02;12.05;;;13.00;50.50;;;;;;5112798;28;20387;-65
2022/01/16 08:44:16;;;;;;;16.65;12.10;;;13.00;50.50;;;;;;5094353;28;20036;-67
2022/01/16 08:46:41;;;;;;;15.02;11.15;;;13.00;50.50;;;;;;5094523;28;20039;-65
2022/01/16 08:49:07;;;;;;;15.20;12.05;;;13.00;50.50;;;;;;5094698;28;20047;-66
2022/01/16 08:51:36;;;;;;;13.48;11.13;;;13.00;50.50;;;;;;5094508;28;20432;-66
2022/01/16 08:54:02;;;;;;;15.32;10.88;;;13.00;50.50;;;;;;5094438;28;20135;-66
2022/01/16 08:56:27;;;;;;;16.63;11.50;;;13.00;50.50;;;;;;5094333;28;20483;-66
2022/01/16 08:58:53;;;;;;;14.43;10.32;;;13.00;50.50;;;;;;5094194;28;20046;-66
2022/01/16 09:01:19;;;;;;;14.82;11.38;;;13.00;50.50;;;;;;5094286;28;20492;-65
2022/01/16 09:03:48;;;;;;;15.40;11.32;;;13.00;50.50;;;;;;5094107;28;20036;-65
2022/01/16 09:06:16;;;;;;;14.15;10.88;;;13.10;50.60;;;;;;5112435;28;20031;-65
2022/01/16 09:08:41;;;;;;;14.73;11.18;;;13.10;50.60;;;;;;5112364;28;20479;-65
2022/01/16 09:11:07;;;;;;;12.95;10.43;;;13.00;50.50;;;;;;5112419;28;20040;-65
2022/01/16 09:13:33;;;;;;;13.63;10.93;;;13.10;50.50;;;;;;5094276;28;20041;-66
2022/01/16 09:16:00;;;;;;;14.25;11.13;;;13.10;50.50;;;;;;5075322;28;20082;-65
2022/01/16 09:18:26;;;;;;;13.73;9.75;;;13.10;50.50;;;;;;5096858;28;20568;-66
2022/01/16 09:20:52;;;;;;;15.50;12.05;;;13.10;50.50;;;;;;5112265;28;20387;-65
2022/01/16 09:23:19;;;;;;;13.98;10.32;;;13.10;51.30;;;;;;5112263;28;20107;-66
2022/01/16 09:25:44;;;;;;;13.23;10.77;;;13.10;50.50;;;;;;5111200;28;20036;-65
2022/01/16 09:28:10;;;;;;;13.70;10.00;;;13.10;50.50;;;;;;5111167;28;20505;-66
2022/01/16 09:30:36;;;;;;;14.88;10.23;;;13.10;50.50;;;;;;5111064;28;20387;-66
2022/01/16 09:33:01;;;;;;;13.45;10.15;;;13.20;50.50;;;;;;5110905;28;20050;-65
2022/01/16 09:35:28;;;;;;;12.65;9.88;;;13.20;50.60;;;;;;5112107;28;20040;-65
2022/01/16 09:37:54;;;;;;;13.45;9.77;;;13.20;50.60;;;;;;5110937;28;20046;-66
2022/01/16 09:40:21;;;;;;;13.80;10.10;;;13.20;50.50;;;;;;5112090;28;20054;-65
2022/01/16 09:42:48;;;;;;;12.38;10.05;;;13.20;50.50;;;;;;5112585;28;20043;-65
2022/01/16 09:45:17;;;;;;;12.23;9.05;;;13.20;50.50;;;;;;5110996;28;20047;-66
2022/01/16 09:47:48;;;;;;;11.68;9.25;;;13.30;50.50;;;;;;5110958;28;20073;-65
2022/01/16 09:50:20;;;;;;;13.45;9.07;;;13.20;50.50;;;;;;5112055;28;20085;-65
2022/01/16 09:52:47;;;;;;;12.40;9.98;;;13.30;50.50;;;;;;5110714;28;20069;-64
2022/01/16 09:55:12;;;;;;;12.25;9.55;;;13.30;50.50;;;;;;5110855;28;20039;-66
2022/01/16 09:57:39;;;;;;;13.25;10.10;;;13.30;50.50;;;;;;5110702;28;20421;-66
2022/01/16 10:00:08;;;;;;;11.40;8.93;;;13.30;50.50;;;;;;5110599;28;20096;-65
2022/01/16 10:02:34;;;;;;;13.07;8.85;;;13.30;50.50;;;;;;5110573;28;20043;-65
2022/01/16 10:04:59;;;;;;;11.23;9.10;;;13.30;50.50;;;;;;5112949;28;20050;-66
2022/01/16 10:07:25;;;;;;;10.77;9.05;;;13.30;50.50;;;;;;5114406;28;20112;-65
2022/01/16 10:10:09;;;;;;;11.00;8.48;;;13.30;50.50;;;;;;5114706;28;20130;-66
2022/01/16 10:12:40;;;;;;;10.68;8.82;;;13.30;50.50;;;;;;5115592;28;20089;-66
2022/01/16 10:15:24;;;;;;;11.45;9.13;;;13.30;50.50;;;;;;5126184;27;20035;-66
2022/01/16 10:17:52;;;;;;;9.95;8.68;;;13.30;50.50;;;;;;5134396;27;20401;-65
2022/01/16 10:20:18;;;;;;;9.70;8.18;;;13.30;50.40;;;;;;5134630;27;20044;-66
2022/01/16 10:22:47;;;;;;;11.63;8.48;;;13.30;50.50;;;;;;5135870;27;20092;-66
2022/01/16 10:25:15;;;;;;;11.13;8.10;;;13.30;50.50;;;;;;5135955;27;20102;-67
2022/01/16 10:27:45;;;;;;;9.95;7.70;;;13.30;50.40;;;;;;5134590;27;20629;-65
2022/01/16 10:30:15;;;;;;;8.63;7.70;;;13.30;50.40;;;;;;5135788;27;20058;-64
2022/01/16 10:32:43;;;;;;;10.77;8.52;;;13.40;50.40;;;;;;5134805;27;20046;-66
2022/01/16 10:37:53;;;;;;;11.13;8.27;;;13.30;50.40;;;;;;5130258;27;20391;-66
2022/01/16 10:43:05;;;;;;;8.60;7.07;;;13.30;50.40;;;;;;5130277;27;20410;-65
2022/01/16 10:45:35;;;;;;;10.55;7.60;;;13.40;50.40;;;;;;5129286;28;20055;-66
2022/01/16 10:48:03;;;;;;;8.65;7.15;;;13.30;50.30;;;;;;5128797;28;20054;-65
2022/01/16 10:50:38;;;;;;;8.95;7.10;;;13.30;50.30;;;;;;5129209;28;20035;-65
2022/01/16 10:53:07;;;;;;;9.18;6.80;;;13.40;50.40;;;;;;5128823;28;20047;-66
2022/01/16 10:58:28;;;;;;;8.80;6.70;;;13.30;50.30;;;;;;5130269;27;20408;-65
2022/01/16 11:01:00;;;;;;;8.10;7.00;;;13.40;50.40;;;;;;5129049;28;20502;-66
2022/01/16 11:03:28;;;;;;;9.05;6.70;;;13.40;50.40;;;;;;5129083;28;20088;-66
2022/01/16 11:05:55;;;;;;;9.20;7.10;;;13.30;50.40;;;;;;5130552;27;20044;-66
2022/01/16 11:08:24;;;;;;;7.05;6.20;;;13.30;50.40;;;;;;5129095;28;20031;-66
2022/01/16 11:10:52;;;;;;;7.30;5.50;;;13.30;50.50;;;;;;5128838;28;20467;-65
2022/01/16 11:13:20;;;;;;;9.18;6.20;;;13.30;50.50;;;;;;5128852;28;20048;-66
2022/01/16 11:15:48;;;;;;;8.15;6.03;;;13.30;50.50;;;;;;5130159;27;20031;-65
2022/01/16 11:18:15;;;;;;;9.23;6.15;;;13.30;50.50;;;;;;5129986;27;20052;-66
2022/01/16 11:20:45;;;;;;;8.73;6.47;;;13.30;50.50;;;;;;5128630;28;20031;-66
2022/01/16 11:25:57;;;;;;;7.90;6.10;;;13.30;50.50;;;;;;5089278;27;20418;-65
2022/01/16 11:28:24;;;;;;;7.57;5.60;;;13.30;50.60;;;;;;5089359;28;20067;-66
2022/01/16 11:30:52;;;;;;;6.00;5.40;;;13.30;50.60;;;;;;5088347;28;20058;-65
2022/01/16 11:33:19;;;;;;;5.55;5.00;;;13.30;50.60;;;;;;5088055;28;20078;-67
2022/01/16 11:35:54;;;;;;;5.90;4.88;;;13.30;50.60;;;;;;5088371;28;20383;-67
2022/01/16 11:38:22;;;;;;;7.95;5.30;;;13.30;50.70;;;;;;5089283;28;20400;-66
2022/01/16 11:40:49;;;;;;;7.40;5.60;;;13.30;50.70;;;;;;5087817;28;20044;-65
2022/01/16 11:43:29;;;;;;;7.80;5.32;;;13.30;50.70;;;;;;5089320;28;20039;-65
2022/01/16 11:48:41;;;;;;;5.75;5.25;;;13.20;50.70;;;;;;5089878;27;20351;-65
2022/01/16 11:54:36;;;;;;;7.72;4.93;;;13.30;50.70;;;;;;5130173;27;20128;-66
2022/01/16 11:57:07;;;;;;;7.10;4.93;;;13.20;50.70;;;;;;5130355;27;20042;-65
2022/01/16 12:04:57;;;;;;;7.15;4.70;;;13.20;51.40;;;;;;5150904;27;20103;-65
2022/01/16 12:10:04;;;;;;;4.82;4.20;;;13.20;50.70;;;;;;5047559;27;4097624;-67
2022/01/16 12:15:18;;;;;;;5.45;4.57;;;13.20;50.70;;;;;;5152850;27;1159067;-65
2022/01/16 12:17:49;;;;;;;4.50;3.90;;;13.20;50.80;;;;;;5153227;27;20050;-65
2022/01/16 12:30:59;;;;;;;5.28;3.40;;;13.20;50.80;;;;;;5130087;27;20398;-65
2022/01/16 12:36:37;;;;;;;3.55;3.17;;;13.20;50.80;;;;;;5130194;27;20859;-65
2022/01/16 12:39:06;;;;;;;5.78;4.13;;;13.20;50.80;;;;;;5129097;28;20505;-66
2022/01/16 12:41:38;;;;;;;5.38;3.10;;;13.20;50.80;;;;;;5128759;28;20035;-65
2022/01/16 12:46:52;;;;;;;6.57;4.75;;;13.20;50.80;;;;;;5150891;27;1222190;-65
2022/01/16 12:49:22;;;;;;;5.25;3.63;;;13.20;50.80;;;;;;5153165;27;20053;-65
2022/01/16 12:51:51;;;;;;;5.57;3.58;;;13.20;50.90;;;;;;5153522;27;20376;-66
2022/01/16 12:56:57;;;;;;;5.25;3.28;;;13.20;50.80;;;;;;5048643;27;4072965;-66
2022/01/16 12:59:25;;;;;;;4.63;3.30;;;13.30;50.90;;;;;;5153043;27;20046;-66
2022/01/16 13:01:55;;;;;;;5.18;3.80;;;13.30;50.90;;;;;;5153238;27;20106;-66
2022/01/16 13:04:26;;;;;;;6.57;3.30;;;13.20;50.80;;;;;;5153270;27;20050;-65
2022/01/16 13:06:52;;;;;;;7.32;3.53;;;13.30;51.00;;;;;;5153180;27;20095;-65
2022/01/16 13:09:18;;;;;;;4.63;3.72;;;13.20;50.80;;;;;;5153035;27;20330;-66
2022/01/16 13:11:47;;;;;;;5.47;3.40;;;13.30;50.90;;;;;;5171682;27;20030;-66
2022/01/16 13:14:16;;;;;;;5.65;3.25;;;13.20;50.90;;;;;;5152900;27;20121;-65
2022/01/16 13:16:44;;;;;;;4.70;2.78;;;13.30;50.90;;;;;;5152660;27;20046;-66
2022/01/16 13:24:36;;;;;;;5.22;3.67;;;13.30;51.00;;;;;;5130321;27;20793;-66
2022/01/16 13:27:06;;;;;;;3.85;2.67;;;13.30;51.00;;;;;;5129185;28;20054;-65
2022/01/16 13:29:34;;;;;;;4.70;3.03;;;13.20;51.00;;;;;;5129291;28;20035;-66
2022/01/16 13:32:03;;;;;;;5.45;3.20;;;13.30;51.00;;;;;;5129093;27;20429;-65
2022/01/16 13:37:15;;;;;;;5.97;3.00;;;13.20;51.00;;;;;;5130628;27;20358;-65
2022/01/16 13:39:45;;;;;;;4.70;3.08;;;13.20;51.10;;;;;;5128892;28;20057;-66
2022/01/16 13:44:52;;;;;;;5.55;2.40;;;13.20;51.90;;;;;;5130211;27;20357;-64
2022/01/16 13:47:21;;;;;;;5.05;3.15;;;13.20;51.10;;;;;;5128969;28;20603;-66
2022/01/16 13:49:52;;;;;;;5.70;3.45;;;13.20;51.20;;;;;;5130242;27;20461;-65
2022/01/16 13:52:25;;;;;;;4.43;3.72;;;13.20;51.20;;;;;;5129113;27;20038;-64
2022/01/16 13:55:04;;;;;;;3.33;2.42;;;13.20;51.20;;;;;;5129063;28;20036;-65
2022/01/16 13:57:31;;;;;;;3.72;2.45;;;13.20;52.00;;;;;;5130164;27;20047;-65
2022/01/16 14:00:05;;;;;;;4.75;2.63;;;13.20;51.30;;;;;;5128703;28;20040;-66
2022/01/16 14:02:31;;;;;;;5.80;3.00;;;13.20;51.30;;;;;;5128866;28;20070;-66
2022/01/16 14:04:56;;;;;;;4.20;2.50;;;13.20;51.30;;;;;;5129098;28;20074;-65
2022/01/16 14:07:22;;;;;;;4.35;2.42;;;13.20;51.40;;;;;;5128604;28;20100;-66
2022/01/16 14:09:52;;;;;;;4.05;3.05;;;13.20;51.40;;;;;;5128400;28;20084;-66
2022/01/16 14:12:19;;;;;;;6.38;3.50;;;13.20;51.40;;;;;;5128745;27;20043;-66